Marshfield, Wisconsin
Current Conditions -  °F | °C
As of 3:54 PM on Sunday 25 Jan 2015 (Local Time) from KMFI Reporting Station
Overcast Overcast  
Wind Chill: 12°   Ceiling: 12000
Heat Index: 21°   Visibility: 10mi
Dew Point:   Wind: 7mph
Humidity: 60%   Direction: 60°ENE
Pressure: 30"   Gusts: NA
Location:  44.67°N, 90.17°W
Report Text: KMFI 252154Z AUTO 06006KT 10SM OVC120 M06/M13 A3000 RMK AO2 SLP181 T10611128
Loading
Personal Weather Stations






























Interactive Weather Map New forecast layout! Learn more

10-Day Weather Forecast

Advertisements
Track Severe Weather on mobile